< < Back
Terminal Aerodrome Forecast


Current Version              Previous Versions:   1  2  3  4  5  6  7  8  9  

Terminal Aerodrome Forecast

931
FTUS42 KJAX 292323
TAFGNV
TAF
KGNV 292323Z 3000/3024 07007KT P6SM SCT050
     FM301000 00000KT 4SM BR SCT020 SCT100
     FM301230 07004KT P6SM SCT025
     FM301600 08007KT P6SM VCSH BKN040
     FM301900 09009KT P6SM VCTS BKN050CB BKN250=

Latest METAR

609
SAUS70 KWBC 300600 RRC
MTRGNV
METAR KGNV 300553Z AUTO 00000KT 10SM CLR 19/18 A3010 RMK AO2 SLP191
T01940183 10272 20189 58007


USA.gov is the U.S. government's official web portal to all federal, state and local government web resources and services.